sensor_id;sensor_type;location;lat;lon;timestamp;pressure;altitude;pressure_sealevel;temperature;humidity
19457;BME280;9867;48.094;11.478;2022-09-06T00:01:29;95404.84;;;17.90;100.00
19457;BME280;9867;48.094;11.478;2022-09-06T00:03:57;95403.41;;;17.99;100.00
19457;BME280;9867;48.094;11.478;2022-09-06T00:06:25;95405.09;;;17.89;100.00
19457;BME280;9867;48.094;11.478;2022-09-06T00:08:53;95402.25;;;17.90;100.00
19457;BME280;9867;48.094;11.478;2022-09-06T00:11:21;95406.38;;;17.75;100.00
19457;BME280;9867;48.094;11.478;2022-09-06T00:13:49;95407.78;;;17.37;100.00
19457;BME280;9867;48.094;11.478;2022-09-06T00:16:18;95408.31;;;16.70;100.00
19457;BME280;9867;48.094;11.478;2022-09-06T00:18:51;95405.16;;;16.45;100.00
19457;BME280;9867;48.094;11.478;2022-09-06T00:21:21;95392.75;;;16.35;100.00
19457;BME280;9867;48.094;11.478;2022-09-06T00:23:49;95394.44;;;16.30;100.00
19457;BME280;9867;48.094;11.478;2022-09-06T00:26:18;95384.06;;;16.30;100.00
19457;BME280;9867;48.094;11.478;2022-09-06T00:28:46;95395.13;;;16.37;100.00
19457;BME280;9867;48.094;11.478;2022-09-06T00:31:16;95393.09;;;16.39;100.00
19457;BME280;9867;48.094;11.478;2022-09-06T00:33:45;95386.78;;;16.35;100.00
19457;BME280;9867;48.094;11.478;2022-09-06T00:36:15;95384.53;;;16.15;100.00
19457;BME280;9867;48.094;11.478;2022-09-06T00:38:43;95390.28;;;16.06;100.00
19457;BME280;9867;48.094;11.478;2022-09-06T00:41:13;95383.84;;;16.08;100.00
19457;BME280;9867;48.094;11.478;2022-09-06T00:43:42;95389.72;;;16.27;100.00
19457;BME280;9867;48.094;11.478;2022-09-06T00:46:14;95395.69;;;16.51;100.00
19457;BME280;9867;48.094;11.478;2022-09-06T00:48:43;95384.75;;;16.37;100.00
19457;BME280;9867;48.094;11.478;2022-09-06T00:51:14;95388.69;;;16.16;100.00
19457;BME280;9867;48.094;11.478;2022-09-06T00:53:43;95388.13;;;16.14;100.00
19457;BME280;9867;48.094;11.478;2022-09-06T00:56:11;95392.19;;;16.10;100.00
19457;BME280;9867;48.094;11.478;2022-09-06T00:58:40;95400.41;;;16.30;100.00
19457;BME280;9867;48.094;11.478;2022-09-06T01:01:08;95409.63;;;16.38;100.00
19457;BME280;9867;48.094;11.478;2022-09-06T01:03:36;95409.53;;;16.33;100.00
19457;BME280;9867;48.094;11.478;2022-09-06T01:06:17;95406.47;;;16.01;100.00
19457;BME280;9867;48.094;11.478;2022-09-06T01:08:59;95406.41;;;15.66;100.00
19457;BME280;9867;48.094;11.478;2022-09-06T01:11:40;95396.63;;;15.68;100.00
19457;BME280;9867;48.094;11.478;2022-09-06T01:14:21;95404.53;;;15.55;100.00
19457;BME280;9867;48.094;11.478;2022-09-06T01:16:59;95398.28;;;15.32;100.00
19457;BME280;9867;48.094;11.478;2022-09-06T01:20:05;95399.09;;;15.15;100.00
19457;BME280;9867;48.094;11.478;2022-09-06T01:22:58;95404.50;;;15.43;100.00
19457;BME280;9867;48.094;11.478;2022-09-06T01:25:35;95417.19;;;15.63;100.00
19457;BME280;9867;48.094;11.478;2022-09-06T01:28:17;95408.75;;;15.67;100.00
19457;BME280;9867;48.094;11.478;2022-09-06T01:30:55;95402.66;;;15.62;100.00
19457;BME280;9867;48.094;11.478;2022-09-06T01:33:31;95413.94;;;15.67;100.00
19457;BME280;9867;48.094;11.478;2022-09-06T01:36:04;95419.38;;;15.78;100.00
19457;BME280;9867;48.094;11.478;2022-09-06T01:38:34;95420.84;;;15.85;100.00
19457;BME280;9867;48.094;11.478;2022-09-06T01:41:02;95422.41;;;15.86;100.00
19457;BME280;9867;48.094;11.478;2022-09-06T01:43:34;95430.78;;;16.00;100.00
19457;BME280;9867;48.094;11.478;2022-09-06T01:46:08;95432.13;;;16.02;100.00
19457;BME280;9867;48.094;11.478;2022-09-06T01:48:57;95433.28;;;16.18;100.00
19457;BME280;9867;48.094;11.478;2022-09-06T01:51:34;95426.84;;;16.09;100.00
19457;BME280;9867;48.094;11.478;2022-09-06T01:54:22;95429.69;;;16.19;100.00
19457;BME280;9867;48.094;11.478;2022-09-06T01:57:08;95431.47;;;16.19;100.00
19457;BME280;9867;48.094;11.478;2022-09-06T02:00:00;95424.72;;;16.06;100.00
19457;BME280;9867;48.094;11.478;2022-09-06T02:02:49;95426.50;;;15.94;100.00
19457;BME280;9867;48.094;11.478;2022-09-06T02:05:24;95415.47;;;15.98;100.00
19457;BME280;9867;48.094;11.478;2022-09-06T02:07:57;95425.59;;;16.00;100.00
19457;BME280;9867;48.094;11.478;2022-09-06T02:10:31;95421.09;;;15.95;100.00
19457;BME280;9867;48.094;11.478;2022-09-06T02:13:01;95424.94;;;16.05;100.00
19457;BME280;9867;48.094;11.478;2022-09-06T02:15:36;95421.56;;;16.04;100.00
19457;BME280;9867;48.094;11.478;2022-09-06T02:18:09;95418.72;;;15.94;100.00
19457;BME280;9867;48.094;11.478;2022-09-06T02:20:41;95421.19;;;15.89;100.00
19457;BME280;9867;48.094;11.478;2022-09-06T02:23:10;95418.38;;;15.79;100.00
19457;BME280;9867;48.094;11.478;2022-09-06T02:25:41;95426.56;;;15.76;100.00
19457;BME280;9867;48.094;11.478;2022-09-06T02:28:10;95418.72;;;15.52;100.00
19457;BME280;9867;48.094;11.478;2022-09-06T02:30:43;95413.34;;;15.35;100.00
19457;BME280;9867;48.094;11.478;2022-09-06T02:33:15;95412.38;;;15.48;100.00
19457;BME280;9867;48.094;11.478;2022-09-06T02:35:46;95415.50;;;15.68;100.00
19457;BME280;9867;48.094;11.478;2022-09-06T02:38:16;95409.03;;;15.78;100.00
19457;BME280;9867;48.094;11.478;2022-09-06T02:40:44;95419.38;;;15.89;100.00
19457;BME280;9867;48.094;11.478;2022-09-06T02:43:13;95420.03;;;15.85;100.00
19457;BME280;9867;48.094;11.478;2022-09-06T02:45:42;95419.31;;;15.66;100.00
19457;BME280;9867;48.094;11.478;2022-09-06T02:48:10;95425.03;;;15.38;100.00
19457;BME280;9867;48.094;11.478;2022-09-06T02:50:38;95417.09;;;15.21;100.00
19457;BME280;9867;48.094;11.478;2022-09-06T02:53:07;95414.13;;;15.06;100.00
19457;BME280;9867;48.094;11.478;2022-09-06T02:55:36;95416.16;;;15.34;100.00
19457;BME280;9867;48.094;11.478;2022-09-06T02:58:07;95423.03;;;15.40;100.00
19457;BME280;9867;48.094;11.478;2022-09-06T03:00:35;95422.34;;;15.15;100.00
19457;BME280;9867;48.094;11.478;2022-09-06T03:03:05;95421.38;;;14.97;100.00
19457;BME280;9867;48.094;11.478;2022-09-06T03:05:33;95414.41;;;14.98;100.00
19457;BME280;9867;48.094;11.478;2022-09-06T03:08:01;95413.41;;;14.99;100.00
19457;BME280;9867;48.094;11.478;2022-09-06T03:10:29;95408.81;;;15.01;100.00
19457;BME280;9867;48.094;11.478;2022-09-06T03:12:57;95411.94;;;15.21;100.00
19457;BME280;9867;48.094;11.478;2022-09-06T03:15:25;95416.81;;;15.29;100.00
19457;BME280;9867;48.094;11.478;2022-09-06T03:17:56;95410.81;;;15.47;100.00
19457;BME280;9867;48.094;11.478;2022-09-06T03:20:26;95403.00;;;15.35;100.00
19457;BME280;9867;48.094;11.478;2022-09-06T03:22:57;95408.00;;;15.19;100.00
19457;BME280;9867;48.094;11.478;2022-09-06T03:25:25;95392.09;;;15.04;100.00
19457;BME280;9867;48.094;11.478;2022-09-06T03:27:53;95396.69;;;15.01;100.00
19457;BME280;9867;48.094;11.478;2022-09-06T03:30:21;95386.50;;;14.88;100.00
19457;BME280;9867;48.094;11.478;2022-09-06T03:32:49;95391.97;;;14.80;100.00
19457;BME280;9867;48.094;11.478;2022-09-06T03:35:17;95391.31;;;15.03;100.00
19457;BME280;9867;48.094;11.478;2022-09-06T03:37:47;95391.94;;;14.98;100.00
19457;BME280;9867;48.094;11.478;2022-09-06T03:40:15;95392.28;;;15.20;100.00
19457;BME280;9867;48.094;11.478;2022-09-06T03:42:43;95392.03;;;14.92;100.00
19457;BME280;9867;48.094;11.478;2022-09-06T03:45:12;95385.13;;;15.04;100.00
19457;BME280;9867;48.094;11.478;2022-09-06T03:47:40;95397.72;;;15.12;100.00
19457;BME280;9867;48.094;11.478;2022-09-06T03:50:08;95399.19;;;15.08;100.00
19457;BME280;9867;48.094;11.478;2022-09-06T03:52:36;95401.72;;;14.78;100.00
19457;BME280;9867;48.094;11.478;2022-09-06T03:55:06;95408.66;;;14.96;100.00
19457;BME280;9867;48.094;11.478;2022-09-06T03:57:34;95412.00;;;14.85;100.00
19457;BME280;9867;48.094;11.478;2022-09-06T04:00:03;95396.91;;;14.82;100.00
19457;BME280;9867;48.094;11.478;2022-09-06T04:02:37;95395.03;;;15.07;100.00
19457;BME280;9867;48.094;11.478;2022-09-06T04:05:05;95403.16;;;15.11;100.00
19457;BME280;9867;48.094;11.478;2022-09-06T04:07:33;95406.09;;;14.96;100.00
19457;BME280;9867;48.094;11.478;2022-09-06T04:10:05;95401.19;;;15.36;100.00
19457;BME280;9867;48.094;11.478;2022-09-06T04:12:33;95414.59;;;15.33;100.00
19457;BME280;9867;48.094;11.478;2022-09-06T04:15:02;95415.72;;;15.07;100.00
19457;BME280;9867;48.094;11.478;2022-09-06T04:17:30;95424.75;;;14.80;100.00
19457;BME280;9867;48.094;11.478;2022-09-06T04:19:58;95412.19;;;14.83;100.00
19457;BME280;9867;48.094;11.478;2022-09-06T04:22:26;95407.22;;;15.18;100.00
19457;BME280;9867;48.094;11.478;2022-09-06T04:24:53;95397.94;;;15.29;100.00
19457;BME280;9867;48.094;11.478;2022-09-06T04:27:23;95398.81;;;15.23;100.00
19457;BME280;9867;48.094;11.478;2022-09-06T04:29:51;95403.03;;;15.17;100.00
19457;BME280;9867;48.094;11.478;2022-09-06T04:32:18;95408.22;;;15.17;100.00
19457;BME280;9867;48.094;11.478;2022-09-06T04:34:46;95399.25;;;15.01;100.00
19457;BME280;9867;48.094;11.478;2022-09-06T04:37:14;95407.16;;;14.88;100.00
19457;BME280;9867;48.094;11.478;2022-09-06T04:39:45;95405.88;;;14.79;100.00
19457;BME280;9867;48.094;11.478;2022-09-06T04:42:14;95403.22;;;14.67;100.00
19457;BME280;9867;48.094;11.478;2022-09-06T04:44:43;95408.31;;;14.74;100.00
19457;BME280;9867;48.094;11.478;2022-09-06T04:47:13;95402.63;;;15.02;100.00
19457;BME280;9867;48.094;11.478;2022-09-06T04:49:43;95414.09;;;15.24;100.00
19457;BME280;9867;48.094;11.478;2022-09-06T04:52:11;95413.69;;;15.39;100.00
19457;BME280;9867;48.094;11.478;2022-09-06T04:54:39;95421.22;;;15.41;100.00
19457;BME280;9867;48.094;11.478;2022-09-06T04:57:07;95408.78;;;15.19;100.00
19457;BME280;9867;48.094;11.478;2022-09-06T04:59:36;95421.34;;;15.34;100.00
19457;BME280;9867;48.094;11.478;2022-09-06T05:02:05;95427.56;;;15.45;100.00
19457;BME280;9867;48.094;11.478;2022-09-06T05:04:33;95420.84;;;15.55;100.00
19457;BME280;9867;48.094;11.478;2022-09-06T05:07:02;95428.19;;;15.40;100.00
19457;BME280;9867;48.094;11.478;2022-09-06T05:09:32;95426.50;;;15.34;100.00
19457;BME280;9867;48.094;11.478;2022-09-06T05:12:00;95426.50;;;15.34;100.00
19457;BME280;9867;48.094;11.478;2022-09-06T05:14:28;95433.69;;;15.14;100.00
19457;BME280;9867;48.094;11.478;2022-09-06T05:16:56;95440.22;;;15.34;100.00
19457;BME280;9867;48.094;11.478;2022-09-06T05:19:26;95449.59;;;15.47;100.00
19457;BME280;9867;48.094;11.478;2022-09-06T05:21:53;95438.16;;;15.55;100.00
19457;BME280;9867;48.094;11.478;2022-09-06T05:24:21;95445.91;;;15.73;100.00
19457;BME280;9867;48.094;11.478;2022-09-06T05:26:49;95453.66;;;15.73;100.00
19457;BME280;9867;48.094;11.478;2022-09-06T05:29:17;95448.97;;;15.82;100.00
19457;BME280;9867;48.094;11.478;2022-09-06T05:31:45;95466.88;;;15.95;100.00
19457;BME280;9867;48.094;11.478;2022-09-06T05:34:13;95468.81;;;16.11;100.00
19457;BME280;9867;48.094;11.478;2022-09-06T05:36:42;95480.41;;;16.09;100.00
19457;BME280;9867;48.094;11.478;2022-09-06T05:39:11;95477.72;;;16.03;100.00
19457;BME280;9867;48.094;11.478;2022-09-06T05:41:39;95482.50;;;16.42;100.00
19457;BME280;9867;48.094;11.478;2022-09-06T05:44:07;95485.56;;;16.85;100.00
19457;BME280;9867;48.094;11.478;2022-09-06T05:46:41;95509.13;;;16.72;100.00
19457;BME280;9867;48.094;11.478;2022-09-06T05:49:09;95508.56;;;16.82;100.00
19457;BME280;9867;48.094;11.478;2022-09-06T05:51:37;95499.41;;;16.79;100.00
19457;BME280;9867;48.094;11.478;2022-09-06T05:54:09;95486.94;;;16.76;100.00
19457;BME280;9867;48.094;11.478;2022-09-06T05:56:38;95503.03;;;16.90;100.00
19457;BME280;9867;48.094;11.478;2022-09-06T05:59:06;95507.84;;;17.10;100.00
19457;BME280;9867;48.094;11.478;2022-09-06T06:01:33;95513.38;;;17.13;100.00
19457;BME280;9867;48.094;11.478;2022-09-06T06:04:03;95523.66;;;17.20;100.00
19457;BME280;9867;48.094;11.478;2022-09-06T06:06:33;95520.09;;;17.37;100.00
19457;BME280;9867;48.094;11.478;2022-09-06T06:09:01;95534.16;;;17.65;100.00
19457;BME280;9867;48.094;11.478;2022-09-06T06:11:31;95537.03;;;17.80;100.00
19457;BME280;9867;48.094;11.478;2022-09-06T06:13:59;95534.81;;;18.00;100.00
19457;BME280;9867;48.094;11.478;2022-09-06T06:16:27;95536.50;;;18.06;100.00
19457;BME280;9867;48.094;11.478;2022-09-06T06:18:55;95536.81;;;18.10;100.00
19457;BME280;9867;48.094;11.478;2022-09-06T06:21:24;95528.34;;;18.15;100.00
19457;BME280;9867;48.094;11.478;2022-09-06T06:23:54;95532.53;;;18.32;100.00
19457;BME280;9867;48.094;11.478;2022-09-06T06:26:24;95534.88;;;18.51;100.00
19457;BME280;9867;48.094;11.478;2022-09-06T06:28:54;95533.16;;;18.56;100.00
19457;BME280;9867;48.094;11.478;2022-09-06T06:31:23;95527.41;;;18.37;100.00
19457;BME280;9867;48.094;11.478;2022-09-06T06:33:51;95542.47;;;18.69;100.00
19457;BME280;9867;48.094;11.478;2022-09-06T06:36:20;95540.25;;;18.94;100.00
19457;BME280;9867;48.094;11.478;2022-09-06T06:38:51;95556.00;;;19.04;100.00
19457;BME280;9867;48.094;11.478;2022-09-06T06:41:21;95559.63;;;19.03;100.00
19457;BME280;9867;48.094;11.478;2022-09-06T06:43:51;95557.28;;;19.02;100.00
19457;BME280;9867;48.094;11.478;2022-09-06T06:46:22;95560.66;;;19.02;100.00
19457;BME280;9867;48.094;11.478;2022-09-06T06:48:50;95571.69;;;19.10;100.00
19457;BME280;9867;48.094;11.478;2022-09-06T06:51:22;95575.44;;;19.19;100.00
19457;BME280;9867;48.094;11.478;2022-09-06T06:53:50;95580.19;;;19.22;100.00
19457;BME280;9867;48.094;11.478;2022-09-06T06:56:20;95587.63;;;19.13;100.00
19457;BME280;9867;48.094;11.478;2022-09-06T06:58:49;95599.72;;;19.24;100.00
19457;BME280;9867;48.094;11.478;2022-09-06T07:01:20;95588.59;;;19.29;100.00
19457;BME280;9867;48.094;11.478;2022-09-06T07:03:49;95593.81;;;19.29;100.00
19457;BME280;9867;48.094;11.478;2022-09-06T07:06:18;95592.34;;;19.38;100.00
19457;BME280;9867;48.094;11.478;2022-09-06T07:08:47;95590.53;;;19.38;100.00
19457;BME280;9867;48.094;11.478;2022-09-06T07:11:16;95591.94;;;19.46;100.00
19457;BME280;9867;48.094;11.478;2022-09-06T07:13:50;95590.31;;;19.40;100.00
19457;BME280;9867;48.094;11.478;2022-09-06T07:16:20;95589.84;;;19.60;100.00
19457;BME280;9867;48.094;11.478;2022-09-06T07:18:50;95602.31;;;19.58;100.00
19457;BME280;9867;48.094;11.478;2022-09-06T07:21:20;95601.75;;;19.56;100.00
19457;BME280;9867;48.094;11.478;2022-09-06T07:24:07;95610.91;;;19.58;100.00
19457;BME280;9867;48.094;11.478;2022-09-06T07:26:36;95615.31;;;19.41;100.00
19457;BME280;9867;48.094;11.478;2022-09-06T07:29:06;95614.81;;;19.44;100.00
19457;BME280;9867;48.094;11.478;2022-09-06T07:31:37;95604.28;;;19.51;100.00
19457;BME280;9867;48.094;11.478;2022-09-06T07:34:25;95613.09;;;19.50;100.00
19457;BME280;9867;48.094;11.478;2022-09-06T07:36:53;95603.19;;;19.30;100.00
19457;BME280;9867;48.094;11.478;2022-09-06T07:39:21;95589.56;;;19.23;100.00
19457;BME280;9867;48.094;11.478;2022-09-06T07:41:50;95579.75;;;18.74;100.00
19457;BME280;9867;48.094;11.478;2022-09-06T07:44:18;95587.63;;;18.96;100.00
19457;BME280;9867;48.094;11.478;2022-09-06T07:46:47;95594.06;;;18.94;100.00
19457;BME280;9867;48.094;11.478;2022-09-06T07:49:15;95598.94;;;18.90;100.00
19457;BME280;9867;48.094;11.478;2022-09-06T07:51:43;95590.63;;;19.05;100.00
19457;BME280;9867;48.094;11.478;2022-09-06T07:54:11;95592.03;;;18.96;100.00
19457;BME280;9867;48.094;11.478;2022-09-06T07:56:55;95579.03;;;18.96;100.00
19457;BME280;9867;48.094;11.478;2022-09-06T07:59:23;95577.22;;;19.13;100.00
19457;BME280;9867;48.094;11.478;2022-09-06T08:01:53;95569.59;;;19.28;100.00
19457;BME280;9867;48.094;11.478;2022-09-06T08:04:21;95567.66;;;19.40;100.00
19457;BME280;9867;48.094;11.478;2022-09-06T08:06:49;95558.28;;;19.56;100.00
19457;BME280;9867;48.094;11.478;2022-09-06T08:09:38;95556.16;;;19.75;100.00
19457;BME280;9867;48.094;11.478;2022-09-06T08:12:07;95558.50;;;19.98;100.00
19457;BME280;9867;48.094;11.478;2022-09-06T08:14:35;95552.00;;;20.50;100.00
19457;BME280;9867;48.094;11.478;2022-09-06T08:17:04;95555.34;;;20.82;100.00
19457;BME280;9867;48.094;11.478;2022-09-06T08:19:32;95566.69;;;20.98;100.00
19457;BME280;9867;48.094;11.478;2022-09-06T08:22:01;95551.66;;;21.15;100.00
19457;BME280;9867;48.094;11.478;2022-09-06T08:24:29;95550.91;;;21.20;100.00
19457;BME280;9867;48.094;11.478;2022-09-06T08:26:57;95550.81;;;21.04;100.00
19457;BME280;9867;48.094;11.478;2022-09-06T08:29:25;95546.91;;;21.07;100.00
19457;BME280;9867;48.094;11.478;2022-09-06T08:31:53;95541.59;;;20.92;100.00
19457;BME280;9867;48.094;11.478;2022-09-06T08:34:22;95539.75;;;20.87;100.00
19457;BME280;9867;48.094;11.478;2022-09-06T08:36:50;95531.34;;;20.80;100.00
19457;BME280;9867;48.094;11.478;2022-09-06T08:39:18;95529.41;;;20.65;100.00
19457;BME280;9867;48.094;11.478;2022-09-06T08:41:49;95523.09;;;20.56;100.00
19457;BME280;9867;48.094;11.478;2022-09-06T08:44:21;95517.91;;;20.61;100.00
19457;BME280;9867;48.094;11.478;2022-09-06T08:47:11;95521.25;;;20.52;100.00
19457;BME280;9867;48.094;11.478;2022-09-06T08:49:43;95518.88;;;20.50;100.00
19457;BME280;9867;48.094;11.478;2022-09-06T08:52:32;95527.69;;;20.44;100.00
19457;BME280;9867;48.094;11.478;2022-09-06T08:55:31;95534.34;;;20.62;100.00
19457;BME280;9867;48.094;11.478;2022-09-06T08:58:10;95538.53;;;20.63;100.00
19457;BME280;9867;48.094;11.478;2022-09-06T09:00:41;95525.69;;;20.56;100.00
19457;BME280;9867;48.094;11.478;2022-09-06T09:03:17;95530.25;;;20.71;100.00
19457;BME280;9867;48.094;11.478;2022-09-06T09:05:50;95518.56;;;20.79;100.00
19457;BME280;9867;48.094;11.478;2022-09-06T09:08:21;95519.44;;;20.94;100.00
19457;BME280;9867;48.094;11.478;2022-09-06T09:10:53;95504.09;;;21.03;100.00
19457;BME280;9867;48.094;11.478;2022-09-06T09:13:26;95516.22;;;20.82;100.00
19457;BME280;9867;48.094;11.478;2022-09-06T09:15:55;95500.59;;;20.82;100.00
19457;BME280;9867;48.094;11.478;2022-09-06T09:18:26;95500.09;;;20.85;100.00
19457;BME280;9867;48.094;11.478;2022-09-06T09:20:58;95491.19;;;20.81;100.00
19457;BME280;9867;48.094;11.478;2022-09-06T09:23:27;95488.41;;;20.56;100.00
19457;BME280;9867;48.094;11.478;2022-09-06T09:25:58;95487.66;;;20.60;100.00
19457;BME280;9867;48.094;11.478;2022-09-06T09:28:28;95481.78;;;20.75;100.00
19457;BME280;9867;48.094;11.478;2022-09-06T09:30:57;95486.63;;;21.03;100.00
19457;BME280;9867;48.094;11.478;2022-09-06T09:33:31;95486.31;;;21.42;100.00
19457;BME280;9867;48.094;11.478;2022-09-06T09:36:08;95482.94;;;21.47;100.00
19457;BME280;9867;48.094;11.478;2022-09-06T09:38:41;95485.63;;;21.77;100.00
19457;BME280;9867;48.094;11.478;2022-09-06T09:41:23;95487.56;;;22.12;100.00
19457;BME280;9867;48.094;11.478;2022-09-06T09:43:55;95477.34;;;22.21;100.00
19457;BME280;9867;48.094;11.478;2022-09-06T09:46:31;95476.59;;;22.35;100.00
19457;BME280;9867;48.094;11.478;2022-09-06T09:49:03;95478.69;;;22.28;100.00
19457;BME280;9867;48.094;11.478;2022-09-06T09:51:34;95485.47;;;22.44;100.00
19457;BME280;9867;48.094;11.478;2022-09-06T09:54:07;95486.78;;;22.83;100.00
19457;BME280;9867;48.094;11.478;2022-09-06T09:56:42;95478.66;;;22.84;100.00
19457;BME280;9867;48.094;11.478;2022-09-06T09:59:18;95481.03;;;22.86;100.00
19457;BME280;9867;48.094;11.478;2022-09-06T10:01:47;95485.16;;;22.97;100.00
19457;BME280;9867;48.094;11.478;2022-09-06T10:04:21;95479.94;;;23.02;100.00
19457;BME280;9867;48.094;11.478;2022-09-06T10:07:13;95469.78;;;22.85;100.00
19457;BME280;9867;48.094;11.478;2022-09-06T10:09:45;95467.88;;;23.11;100.00
19457;BME280;9867;48.094;11.478;2022-09-06T10:12:19;95471.72;;;23.29;100.00
19457;BME280;9867;48.094;11.478;2022-09-06T10:14:54;95472.00;;;23.27;100.00
19457;BME280;9867;48.094;11.478;2022-09-06T10:17:28;95474.69;;;23.07;100.00
19457;BME280;9867;48.094;11.478;2022-09-06T10:19:59;95467.38;;;22.99;100.00
19457;BME280;9867;48.094;11.478;2022-09-06T10:22:31;95460.03;;;23.06;100.00
19457;BME280;9867;48.094;11.478;2022-09-06T10:25:42;95460.56;;;23.03;100.00
19457;BME280;9867;48.094;11.478;2022-09-06T10:28:36;95461.81;;;23.16;100.00
19457;BME280;9867;48.094;11.478;2022-09-06T10:31:17;95462.47;;;23.57;100.00
19457;BME280;9867;48.094;11.478;2022-09-06T10:34:02;95460.72;;;23.86;100.00
19457;BME280;9867;48.094;11.478;2022-09-06T10:36:34;95456.47;;;23.95;100.00
19457;BME280;9867;48.094;11.478;2022-09-06T10:39:10;95464.09;;;23.92;100.00
19457;BME280;9867;48.094;11.478;2022-09-06T10:42:01;95461.47;;;23.92;100.00
19457;BME280;9867;48.094;11.478;2022-09-06T10:44:45;95450.84;;;24.12;100.00
19457;BME280;9867;48.094;11.478;2022-09-06T10:47:18;95457.34;;;24.20;100.00
19457;BME280;9867;48.094;11.478;2022-09-06T10:49:51;95463.47;;;24.44;100.00
19457;BME280;9867;48.094;11.478;2022-09-06T10:52:24;95454.75;;;24.54;100.00
19457;BME280;9867;48.094;11.478;2022-09-06T10:54:57;95451.69;;;24.70;100.00
19457;BME280;9867;48.094;11.478;2022-09-06T10:57:33;95447.19;;;24.76;100.00
19457;BME280;9867;48.094;11.478;2022-09-06T11:00:25;95439.81;;;24.78;100.00
19457;BME280;9867;48.094;11.478;2022-09-06T11:03:00;95439.91;;;24.97;100.00
19457;BME280;9867;48.094;11.478;2022-09-06T11:05:57;95440.97;;;24.96;100.00
19457;BME280;9867;48.094;11.478;2022-09-06T11:08:30;95436.09;;;25.08;100.00
19457;BME280;9867;48.094;11.478;2022-09-06T11:11:23;95432.72;;;25.50;100.00
19457;BME280;9867;48.094;11.478;2022-09-06T11:13:55;95435.66;;;25.25;100.00
19457;BME280;9867;48.094;11.478;2022-09-06T11:16:25;95433.88;;;25.20;100.00
19457;BME280;9867;48.094;11.478;2022-09-06T11:18:58;95439.22;;;25.10;100.00
19457;BME280;9867;48.094;11.478;2022-09-06T11:24:56;95431.44;;;24.76;100.00
19457;BME280;9867;48.094;11.478;2022-09-06T11:27:35;95432.25;;;24.71;100.00
19457;BME280;9867;48.094;11.478;2022-09-06T11:30:05;95423.38;;;24.91;100.00
19457;BME280;9867;48.094;11.478;2022-09-06T11:32:37;95420.41;;;25.27;100.00
19457;BME280;9867;48.094;11.478;2022-09-06T11:35:07;95422.50;;;25.67;100.00
19457;BME280;9867;48.094;11.478;2022-09-06T11:37:38;95419.63;;;26.01;100.00
19457;BME280;9867;48.094;11.478;2022-09-06T11:40:14;95419.88;;;25.86;100.00
19457;BME280;9867;48.094;11.478;2022-09-06T11:43:16;95417.63;;;25.37;100.00
19457;BME280;9867;48.094;11.478;2022-09-06T11:45:47;95419.31;;;25.28;100.00
19457;BME280;9867;48.094;11.478;2022-09-06T11:48:34;95412.56;;;25.22;100.00
19457;BME280;9867;48.094;11.478;2022-09-06T11:51:05;95412.63;;;25.17;100.00
19457;BME280;9867;48.094;11.478;2022-09-06T11:54:02;95409.00;;;25.12;100.00
19457;BME280;9867;48.094;11.478;2022-09-06T11:56:35;95414.50;;;25.35;100.00
19457;BME280;9867;48.094;11.478;2022-09-06T11:59:19;95419.81;;;25.72;100.00
19457;BME280;9867;48.094;11.478;2022-09-06T12:02:02;95409.69;;;25.98;100.00
19457;BME280;9867;48.094;11.478;2022-09-06T12:07:33;95397.09;;;26.28;100.00
19457;BME280;9867;48.094;11.478;2022-09-06T12:13:34;95401.31;;;26.75;100.00
19457;BME280;9867;48.094;11.478;2022-09-06T12:16:07;95405.59;;;26.71;100.00
19457;BME280;9867;48.094;11.478;2022-09-06T12:19:01;95404.81;;;26.84;100.00
19457;BME280;9867;48.094;11.478;2022-09-06T12:21:41;95395.28;;;26.88;100.00
19457;BME280;9867;48.094;11.478;2022-09-06T12:24:50;95390.69;;;26.66;100.00
19457;BME280;9867;48.094;11.478;2022-09-06T12:27:20;95393.09;;;26.76;100.00
19457;BME280;9867;48.094;11.478;2022-09-06T12:29:50;95392.31;;;26.76;100.00
19457;BME280;9867;48.094;11.478;2022-09-06T12:32:24;95384.16;;;26.91;100.00
19457;BME280;9867;48.094;11.478;2022-09-06T12:34:54;95392.72;;;26.83;100.00
19457;BME280;9867;48.094;11.478;2022-09-06T12:37:49;95383.25;;;26.55;100.00
19457;BME280;9867;48.094;11.478;2022-09-06T12:40:19;95383.75;;;27.25;100.00
19457;BME280;9867;48.094;11.478;2022-09-06T12:42:49;95380.06;;;27.12;100.00
19457;BME280;9867;48.094;11.478;2022-09-06T12:45:18;95381.44;;;27.46;100.00
19457;BME280;9867;48.094;11.478;2022-09-06T12:48:05;95375.34;;;27.95;100.00
19457;BME280;9867;48.094;11.478;2022-09-06T12:50:35;95378.53;;;27.61;100.00
19457;BME280;9867;48.094;11.478;2022-09-06T12:53:16;95361.94;;;27.47;100.00
19457;BME280;9867;48.094;11.478;2022-09-06T12:56:01;95367.31;;;27.78;100.00
19457;BME280;9867;48.094;11.478;2022-09-06T12:58:29;95366.16;;;28.15;100.00
19457;BME280;9867;48.094;11.478;2022-09-06T13:01:02;95364.22;;;28.21;100.00
19457;BME280;9867;48.094;11.478;2022-09-06T13:03:36;95358.63;;;28.53;100.00
19457;BME280;9867;48.094;11.478;2022-09-06T13:06:05;95361.56;;;28.91;100.00
19457;BME280;9867;48.094;11.478;2022-09-06T13:08:37;95369.72;;;29.12;100.00
19457;BME280;9867;48.094;11.478;2022-09-06T13:11:11;95368.66;;;29.22;100.00
19457;BME280;9867;48.094;11.478;2022-09-06T13:13:45;95356.97;;;29.05;100.00
19457;BME280;9867;48.094;11.478;2022-09-06T13:16:21;95357.63;;;28.40;100.00
19457;BME280;9867;48.094;11.478;2022-09-06T13:18:52;95352.34;;;28.40;100.00
19457;BME280;9867;48.094;11.478;2022-09-06T13:21:26;95355.09;;;28.27;100.00
19457;BME280;9867;48.094;11.478;2022-09-06T13:23:56;95351.44;;;28.45;100.00
19457;BME280;9867;48.094;11.478;2022-09-06T13:26:34;95347.53;;;28.73;100.00
19457;BME280;9867;48.094;11.478;2022-09-06T13:29:10;95341.00;;;29.53;100.00